Pagrindinis puslapis
METAR-TAF:

METAR-TAF

Oro uostai :

Anchelesas, Filipinai

platuma: 15-11N, ilguma: 120-33E, Aukštis: 148 m

Dabartinis oras

Ataskaita buvo paskelbta 54 minutes, ne 00:00 UTC
Vėjas 2 kt iš Rytų/Pietryčių
Temperatūra 26°C
Drėgmė 74%
Slėgis 1010 hPa
Matomumas: 8000 m
Mažai debesys ne aukštis 2000 ft
Išsisklaidę debesys ne aukštis 30000 ft

METAR: RPLC 260000Z 11002KT 8000 FEW020 SCT300 26/21 Q1010 NOSIG RMK A2983

Laikas: 08:54 (00:54 UTC)

Prognozė

Ataskaita buvo paskelbta 1 valandą ir 54 minutes, ne 23:00 UTC
Prognozė galioja nuo 26 metu 00 UTC su 27 metu 06 UTC
Vėjas 5 kt iš Šiaurės Vakarų
Matomumas 10 km arba daugiau
Mažai debesys ne aukštis 2000 ft
Su prošvaistėmis ne aukštis 30000 ft
Laikinai
nuo 26 metu 00 UTC su 26 metu 06 UTC
Vėjas 8 kt iš Šiaurės
Išsisklaidę debesys ne aukštis 2000 ft
Su prošvaistėmis ne aukštis 10000 ft

TAF: RPLC 252300Z 2600/2706 32005KT 9999 FEW020 BKN300 TX33/2606Z TN23/2622Z TEMPO 2600/2606 36008KT SCT020 BKN100

Orai ataskaitas ir orų prognozės (METAR, TAF).

turimą stotys yra geltonos ir raudonos taškus žemėlapyje.

Perkelti pele per norėdami pamatyti stoties vardą.

Tada spustelėkite, norėdami matyti oro stebėjimo ir prognozės.

Norėdami pakeisti žemėlapį: spustelėkite ant žalios mygtukų su juodo kryžiaus žemyn,; žalią mygtuką su brūkšneliu, jei norite nutolinti; arba žalių rodyklių gretimoms žemėlapius.


METAR-TAF: